createdAt,value
2022-08-05T00:01:35.686Z,101643.53
2022-08-05T00:04:08.189Z,101641.94
2022-08-05T00:06:37.211Z,101628.56
2022-08-05T00:09:13.166Z,101631.53
2022-08-05T00:11:48.666Z,101621.34
2022-08-05T00:14:19.386Z,101610.22
2022-08-05T00:16:52.082Z,101604.66
2022-08-05T00:19:23.459Z,101591.03
2022-08-05T00:21:54.177Z,101577.88
2022-08-05T00:24:24.796Z,101573.16
2022-08-05T00:27:01.289Z,101564.97
2022-08-05T00:29:38.188Z,101558.94
2022-08-05T00:32:14.947Z,101549.94
2022-08-05T00:35:05.710Z,101550.28
2022-08-05T00:37:50.542Z,101538.63
2022-08-05T00:40:26.723Z,101552.25
2022-08-05T00:43:01.710Z,101552.69
2022-08-05T00:45:38.587Z,101550.25
2022-08-05T00:48:10.155Z,101555.47
2022-08-05T00:50:41.411Z,101548.63
2022-08-05T00:54:01.431Z,101548.69
2022-08-05T00:56:01.849Z,101529.56
2022-08-05T00:58:31.710Z,101477.72
2022-08-05T01:01:00.615Z,101477.19
2022-08-05T01:03:30.833Z,101510.28
2022-08-05T01:06:02.594Z,101513.06
2022-08-05T01:08:42.997Z,101509.28
2022-08-05T01:11:22.399Z,101522.31
2022-08-05T01:14:04.074Z,101536.91
2022-08-05T01:16:49.230Z,101523.13
2022-08-05T01:19:46.225Z,101493.81
2022-08-05T01:22:28.032Z,101456.16
2022-08-05T01:25:11.226Z,101407.94
2022-08-05T01:28:16.140Z,101390.25
2022-08-05T01:30:53.771Z,101389.56
2022-08-05T01:33:29.557Z,101419.78
2022-08-05T01:36:13.146Z,101451.28
2022-08-05T01:38:48.425Z,101476.03
2022-08-05T01:41:22.567Z,101494.00
2022-08-05T01:43:56.697Z,101509.84
2022-08-05T01:46:42.560Z,101503.91
2022-08-05T01:49:23.000Z,101520.66
2022-08-05T01:51:58.013Z,101527.75
2022-08-05T01:54:33.285Z,101549.50
2022-08-05T01:58:11.439Z,101554.66
2022-08-05T01:59:59.536Z,101550.41
2022-08-05T02:02:30.813Z,101558.75
2022-08-05T02:05:03.115Z,101575.78
2022-08-05T02:07:33.697Z,101585.97
2022-08-05T02:10:04.990Z,101600.03
2022-08-05T02:12:44.346Z,101618.84
2022-08-05T02:15:33.258Z,101608.47
2022-08-05T02:18:27.510Z,101601.91
2022-08-05T02:21:02.503Z,101612.84
2022-08-05T02:23:37.650Z,101620.34
2022-08-05T02:26:10.574Z,101630.56
2022-08-05T02:28:45.732Z,101627.41
2022-08-05T02:31:28.362Z,101624.28
2022-08-05T02:34:00.700Z,101626.63
2022-08-05T02:36:31.396Z,101628.22
2022-08-05T02:39:02.805Z,101623.22
2022-08-05T02:41:43.415Z,101620.38
2022-08-05T02:44:26.816Z,101621.34
2022-08-05T02:47:00.459Z,101615.66
2022-08-05T02:49:36.813Z,101616.16
2022-08-05T02:52:09.110Z,101618.78
2022-08-05T02:54:42.290Z,101614.09
2022-08-05T02:58:10.420Z,101617.53
2022-08-05T03:00:04.736Z,101607.19
2022-08-05T03:02:38.225Z,101609.22
2022-08-05T03:05:11.459Z,101615.31
2022-08-05T03:08:07.065Z,101620.97
2022-08-05T03:10:31.332Z,101617.69
2022-08-05T03:15:28.167Z,101630.06
2022-08-05T03:17:59.516Z,101645.69
2022-08-05T03:20:28.295Z,101656.97
2022-08-05T03:22:58.085Z,101649.16
2022-08-05T03:25:33.445Z,101645.41
2022-08-05T03:28:18.544Z,101645.25
2022-08-05T03:30:49.624Z,101643.88
2022-08-05T03:33:22.224Z,101647.16
2022-08-05T03:36:01.129Z,101644.47
2022-08-05T03:38:33.393Z,101651.84
2022-08-05T03:41:10.703Z,101652.34
2022-08-05T03:44:08.789Z,101638.41
2022-08-05T03:46:29.977Z,101646.06
2022-08-05T03:49:02.492Z,101661.25
2022-08-05T03:52:37.528Z,101659.34
2022-08-05T03:55:51.303Z,101651.34
2022-08-05T03:57:41.940Z,101656.38
2022-08-05T04:00:16.028Z,101677.53
2022-08-05T04:02:57.789Z,101688.16
2022-08-05T04:05:34.681Z,101690.50
2022-08-05T04:08:29.618Z,101693.97
2022-08-05T04:10:55.503Z,101690.19
2022-08-05T04:13:24.609Z,101704.00
2022-08-05T04:16:04.199Z,101710.13
2022-08-05T04:18:34.543Z,101706.53
2022-08-05T04:21:06.007Z,101712.81
2022-08-05T04:24:01.709Z,101721.72
2022-08-05T04:26:25.662Z,101721.72
2022-08-05T04:29:07.203Z,101723.13
2022-08-05T04:31:38.574Z,101728.44
2022-08-05T04:34:31.369Z,101727.81
2022-08-05T04:36:58.343Z,101730.66
2022-08-05T04:39:27.605Z,101718.13
2022-08-05T04:41:56.377Z,101721.59
2022-08-05T04:44:30.247Z,101720.38
2022-08-05T04:46:59.617Z,101714.44
2022-08-05T04:49:39.196Z,101706.75
2022-08-05T04:52:18.795Z,101704.41
2022-08-05T04:54:49.405Z,101693.44
2022-08-05T04:57:18.390Z,101692.19
2022-08-05T04:59:48.152Z,101688.91
2022-08-05T05:02:36.103Z,101681.06
2022-08-05T05:05:26.139Z,101682.16
2022-08-05T05:08:01.879Z,101699.38
2022-08-05T05:10:33.394Z,101712.25
2022-08-05T05:13:04.238Z,101724.31
2022-08-05T05:15:56.452Z,101731.34
2022-08-05T05:18:31.362Z,101728.84
2022-08-05T05:21:03.786Z,101733.38
2022-08-05T05:23:39.398Z,101726.19
2022-08-05T05:26:28.532Z,101725.56
2022-08-05T05:29:02.743Z,101712.06
2022-08-05T05:31:46.475Z,101715.03
2022-08-05T05:34:15.651Z,101704.56
2022-08-05T05:36:47.097Z,101690.09
2022-08-05T05:39:21.140Z,101656.31
2022-08-05T05:41:54.523Z,101650.13
2022-08-05T05:44:36.229Z,101650.16
2022-08-05T05:47:07.737Z,101663.19
2022-08-05T05:49:56.531Z,101678.97
2022-08-05T05:52:33.185Z,101694.19
2022-08-05T05:55:13.340Z,101680.22
2022-08-05T05:57:52.550Z,101663.88
2022-08-05T06:00:31.424Z,101642.88
2022-08-05T06:03:03.290Z,101650.22
2022-08-05T06:05:53.971Z,101661.25
2022-08-05T06:08:31.805Z,101669.69
2022-08-05T06:11:02.859Z,101664.69
2022-08-05T06:13:40.683Z,101668.28
2022-08-05T06:16:28.840Z,101666.59
2022-08-05T06:19:01.093Z,101676.13
2022-08-05T06:21:37.000Z,101674.25
2022-08-05T06:24:11.721Z,101682.72
2022-08-05T06:26:45.864Z,101680.22
2022-08-05T06:29:42.982Z,101677.69
2022-08-05T06:32:25.565Z,101680.81
2022-08-05T06:34:56.414Z,101699.97
2022-08-05T06:37:57.963Z,101713.94
2022-08-05T06:40:18.468Z,101709.72
2022-08-05T06:42:52.864Z,101709.72
2022-08-05T06:45:44.595Z,101693.09
2022-08-05T06:48:54.812Z,101702.03
2022-08-05T06:51:09.533Z,101699.06
2022-08-05T06:53:39.519Z,101695.91
2022-08-05T06:56:25.865Z,101705.94
2022-08-05T06:58:58.392Z,101716.75
2022-08-05T07:01:32.758Z,101718.47
2022-08-05T07:04:03.026Z,101719.09
2022-08-05T07:06:32.286Z,101724.91
2022-08-05T07:09:04.138Z,101726.31
2022-08-05T07:11:36.790Z,101732.09
2022-08-05T07:14:29.303Z,101717.69
2022-08-05T07:17:59.792Z,101728.84
2022-08-05T07:22:43.190Z,101740.16
2022-08-05T07:25:22.459Z,101735.88
2022-08-05T07:27:57.566Z,101740.41
2022-08-05T07:30:34.756Z,101739.19
2022-08-05T07:33:10.661Z,101747.34
2022-08-05T07:36:03.791Z,101754.53
2022-08-05T07:38:42.498Z,101747.34
2022-08-05T07:42:08.121Z,101747.31
2022-08-05T07:44:03.879Z,101756.75
2022-08-05T07:46:35.163Z,101759.59
2022-08-05T07:49:06.179Z,101755.00
2022-08-05T07:51:48.538Z,101756.91
2022-08-05T07:54:31.391Z,101747.81
2022-08-05T07:57:16.709Z,101750.00
2022-08-05T07:59:53.456Z,101753.44
2022-08-05T08:02:31.336Z,101760.81
2022-08-05T08:05:17.613Z,101753.91
2022-08-05T08:07:59.617Z,101774.41
2022-08-05T08:10:30.107Z,101779.28
2022-08-05T08:12:59.219Z,101774.25
2022-08-05T08:16:34.423Z,101782.41
2022-08-05T08:18:22.185Z,101785.25
2022-08-05T08:21:02.390Z,101788.38
2022-08-05T08:24:01.160Z,101774.44
2022-08-05T08:26:26.890Z,101774.47
2022-08-05T08:29:09.806Z,101788.09
2022-08-05T08:31:48.824Z,101793.09
2022-08-05T08:34:18.979Z,101791.06
2022-08-05T08:37:05.003Z,101803.28
2022-08-05T08:39:37.806Z,101806.09
2022-08-05T08:42:32.557Z,101817.25
2022-08-05T08:45:24.750Z,101824.75
2022-08-05T08:48:10.697Z,101837.78
2022-08-05T08:51:03.885Z,101845.13
2022-08-05T08:53:37.598Z,101829.72
2022-08-05T08:56:09.318Z,101832.72
2022-08-05T08:58:44.409Z,101834.31
2022-08-05T09:01:17.953Z,101841.22
2022-08-05T09:03:55.071Z,101847.97
2022-08-05T09:06:31.300Z,101848.00
2022-08-05T09:09:02.757Z,101856.44
2022-08-05T09:11:52.477Z,101864.88
2022-08-05T09:14:58.277Z,101868.03
2022-08-05T09:17:41.265Z,101862.97
2022-08-05T09:20:04.832Z,101862.44
2022-08-05T09:23:07.918Z,101841.25
2022-08-05T09:26:03.155Z,101843.47
2022-08-05T09:28:32.215Z,101852.56
2022-08-05T09:31:44.124Z,101843.78
2022-08-05T09:33:58.734Z,101848.78
2022-08-05T09:36:54.621Z,101853.03
2022-08-05T09:39:39.262Z,101863.41
2022-08-05T09:42:23.550Z,101859.22
2022-08-05T09:44:56.126Z,101852.63
2022-08-05T09:47:35.186Z,101851.41
2022-08-05T09:50:38.951Z,101866.19
2022-08-05T09:53:12.015Z,101879.50
2022-08-05T09:56:04.777Z,101885.25
2022-08-05T09:58:33.645Z,101889.97
2022-08-05T10:01:13.565Z,101886.81
2022-08-05T10:03:59.623Z,101884.63
2022-08-05T10:06:32.574Z,101886.78
2022-08-05T10:09:27.987Z,101882.41
2022-08-05T10:12:18.742Z,101886.03
2022-08-05T10:15:17.284Z,101894.72
2022-08-05T10:18:10.544Z,101881.06
2022-08-05T10:20:42.808Z,101881.50
2022-08-05T10:23:34.400Z,101892.63
2022-08-05T10:26:07.034Z,101887.28
2022-08-05T10:28:37.526Z,101886.66
2022-08-05T10:32:55.701Z,101886.34
2022-08-05T10:33:56.933Z,101892.78
2022-08-05T10:36:28.145Z,101897.47
2022-08-05T10:39:05.261Z,101890.75
2022-08-05T10:41:48.565Z,101901.88
2022-08-05T10:44:21.779Z,101901.28
2022-08-05T10:46:54.194Z,101902.38
2022-08-05T10:49:33.230Z,101900.34
2022-08-05T10:52:05.233Z,101908.50
2022-08-05T10:55:02.886Z,101926.13
2022-08-05T10:57:34.033Z,101930.00
2022-08-05T11:00:19.071Z,101927.34
2022-08-05T11:03:25.673Z,101926.72
2022-08-05T11:06:15.732Z,101934.88
2022-08-05T11:09:39.263Z,101932.03
2022-08-05T11:12:50.467Z,101932.03
2022-08-05T11:16:00.824Z,101928.03
2022-08-05T11:18:32.443Z,101935.56
2022-08-05T11:21:11.784Z,101936.81
2022-08-05T11:24:04.140Z,101936.16
2022-08-05T11:26:33.847Z,101913.63
2022-08-05T11:29:11.357Z,101905.34
2022-08-05T11:31:53.931Z,101897.81
2022-08-05T11:34:50.918Z,101880.31
2022-08-05T11:38:30.136Z,101854.28
2022-08-05T11:41:02.755Z,101835.25
2022-08-05T11:44:04.444Z,101817.06
2022-08-05T11:46:35.386Z,101805.44
2022-08-05T11:49:08.032Z,101795.19
2022-08-05T11:51:44.293Z,101789.06
2022-08-05T11:54:33.876Z,101773.84
2022-08-05T11:57:08.723Z,101763.59
2022-08-05T11:59:53.355Z,101775.06
2022-08-05T12:02:31.721Z,101768.84
2022-08-05T12:05:07.041Z,101768.16
2022-08-05T12:08:07.429Z,101777.97
2022-08-05T12:10:43.731Z,101768.38
2022-08-05T12:13:47.430Z,101766.47
2022-08-05T12:16:14.449Z,101754.41
2022-08-05T12:18:52.219Z,101742.91
2022-08-05T12:21:26.822Z,101739.28
2022-08-05T12:24:07.186Z,101734.22
2022-08-05T12:26:38.135Z,101733.38
2022-08-05T12:29:09.641Z,101729.75
2022-08-05T12:31:48.212Z,101726.38
2022-08-05T12:34:25.974Z,101731.31
2022-08-05T12:36:58.170Z,101724.44
2022-08-05T12:39:34.743Z,101716.56
2022-08-05T12:42:14.873Z,101713.88
2022-08-05T12:44:45.906Z,101732.84
2022-08-05T12:47:28.703Z,101750.41
2022-08-05T12:50:04.252Z,101751.38
2022-08-05T12:52:38.768Z,101752.63
2022-08-05T12:55:23.801Z,101741.75
2022-08-05T12:58:50.693Z,101748.66
2022-08-05T13:02:02.595Z,101749.41
2022-08-05T13:03:41.497Z,101743.28
2022-08-05T13:06:16.499Z,101745.72
2022-08-05T13:08:51.762Z,101747.38
2022-08-05T13:11:25.647Z,101726.28
2022-08-05T13:14:24.689Z,101713.00
2022-08-05T13:17:10.162Z,101716.47
2022-08-05T13:19:52.433Z,101733.47
2022-08-05T13:22:28.086Z,101732.28
2022-08-05T13:25:05.552Z,101737.38
2022-08-05T13:27:37.999Z,101738.72
2022-08-05T13:30:35.686Z,101709.25
2022-08-05T13:33:01.262Z,101704.53
2022-08-05T13:35:47.497Z,101690.59
2022-08-05T13:38:31.028Z,101675.06
2022-08-05T13:41:06.395Z,101678.16
2022-08-05T13:43:45.266Z,101680.31
2022-08-05T13:46:38.005Z,101687.19
2022-08-05T13:49:13.646Z,101705.47
2022-08-05T13:51:46.409Z,101726.81
2022-08-05T13:54:21.178Z,101734.06
2022-08-05T13:56:55.399Z,101754.28
2022-08-05T13:59:26.952Z,101768.03
2022-08-05T14:01:58.166Z,101774.94
2022-08-05T14:04:49.933Z,101746.03
2022-08-05T14:07:26.175Z,101756.41
2022-08-05T14:10:12.341Z,101770.41
2022-08-05T14:12:48.417Z,101787.63
2022-08-05T14:16:07.366Z,101777.31
2022-08-05T14:18:15.304Z,101761.00
2022-08-05T14:20:48.618Z,101763.47
2022-08-05T14:23:24.902Z,101772.66
2022-08-05T14:25:58.650Z,101777.09
2022-08-05T14:28:30.408Z,101759.72
2022-08-05T14:31:01.422Z,101747.63
2022-08-05T14:33:56.643Z,101760.84
2022-08-05T14:36:21.635Z,101756.63
2022-08-05T14:38:51.909Z,101774.34
2022-08-05T14:41:21.126Z,101746.75
2022-08-05T14:44:01.511Z,101787.56
2022-08-05T14:46:35.194Z,101777.53
2022-08-05T14:49:07.351Z,101801.59
2022-08-05T14:51:38.279Z,101799.00
2022-08-05T14:54:29.918Z,101795.84
2022-08-05T14:56:56.704Z,101801.31
2022-08-05T14:59:29.585Z,101786.75
2022-08-05T15:02:14.721Z,101792.00
2022-08-05T15:04:47.753Z,101788.34
2022-08-05T15:08:04.555Z,101796.41
2022-08-05T15:10:09.842Z,101808.31
2022-08-05T15:13:00.442Z,101814.28
2022-08-05T15:15:54.216Z,101814.81
2022-08-05T15:18:18.458Z,101824.16
2022-08-05T15:20:47.328Z,101815.59
2022-08-05T15:23:16.319Z,101838.16
2022-08-05T15:25:53.761Z,101827.28
2022-08-05T15:28:27.852Z,101843.34
2022-08-05T15:30:58.076Z,101836.97
2022-08-05T15:34:18.524Z,101856.16
2022-08-05T15:36:24.054Z,101861.56
2022-08-05T15:40:41.604Z,101850.31
2022-08-05T15:41:58.083Z,101873.47
2022-08-05T15:44:30.195Z,101868.25
2022-08-05T15:47:03.724Z,101874.22
2022-08-05T15:49:48.289Z,101878.06
2022-08-05T15:52:51.721Z,101873.00
2022-08-05T15:55:15.514Z,101871.84
2022-08-05T15:57:45.960Z,101871.03
2022-08-05T16:00:32.652Z,101872.41
2022-08-05T16:03:08.847Z,101871.22
2022-08-05T16:05:38.983Z,101882.50
2022-08-05T16:08:10.279Z,101874.47
2022-08-05T16:10:44.631Z,101882.03
2022-08-05T16:13:23.497Z,101874.69
2022-08-05T16:15:52.844Z,101907.16
2022-08-05T16:18:28.071Z,101892.31
2022-08-05T16:20:59.762Z,101910.91
2022-08-05T16:23:32.946Z,101912.22
2022-08-05T16:26:26.546Z,101887.88
2022-08-05T16:28:56.349Z,101889.25
2022-08-05T16:31:25.094Z,101898.53
2022-08-05T16:33:55.385Z,101915.50
2022-08-05T16:36:24.150Z,101911.53
2022-08-05T16:38:55.510Z,101928.09
2022-08-05T16:42:27.733Z,101931.50
2022-08-05T16:44:15.025Z,101936.31
2022-08-05T16:46:56.099Z,101929.28
2022-08-05T16:49:26.561Z,101946.81
2022-08-05T16:51:58.338Z,101948.47
2022-08-05T16:54:32.816Z,101950.69
2022-08-05T16:57:02.092Z,101951.59
2022-08-05T16:59:31.049Z,101947.59
2022-08-05T17:01:59.802Z,101955.66
2022-08-05T17:04:31.391Z,101950.59
2022-08-05T17:07:01.821Z,101950.59
2022-08-05T17:09:57.612Z,101951.41
2022-08-05T17:12:22.553Z,101955.81
2022-08-05T17:15:10.532Z,101962.53
2022-08-05T17:17:44.489Z,101962.09
2022-08-05T17:20:14.883Z,101960.91
2022-08-05T17:22:45.018Z,101965.28
2022-08-05T17:25:33.945Z,101982.56
2022-08-05T17:28:02.287Z,101978.81
2022-08-05T17:30:31.004Z,101980.75
2022-08-05T17:32:59.569Z,101968.78
2022-08-05T17:35:32.604Z,101984.47
2022-08-05T17:38:18.076Z,101977.47
2022-08-05T17:40:46.663Z,101984.81
2022-08-05T17:43:18.122Z,101987.28
2022-08-05T17:46:07.122Z,101989.28
2022-08-05T17:48:38.923Z,102006.13
2022-08-05T17:51:09.505Z,101990.81
2022-08-05T17:53:38.139Z,101995.31
2022-08-05T17:56:09.509Z,102000.75
2022-08-05T17:58:39.530Z,102016.03
2022-08-05T18:01:09.973Z,102011.72
2022-08-05T18:03:58.898Z,102019.81
2022-08-05T18:06:31.105Z,102023.75
2022-08-05T18:09:00.252Z,102021.00
2022-08-05T18:11:33.457Z,102024.84
2022-08-05T18:14:06.721Z,102033.94
2022-08-05T18:16:46.760Z,102038.59
2022-08-05T18:19:22.866Z,102043.56
2022-08-05T18:22:09.418Z,102045.75
2022-08-05T18:24:40.619Z,102056.94
2022-08-05T18:27:18.599Z,102057.09
2022-08-05T18:29:53.458Z,102065.53
2022-08-05T18:32:28.368Z,102067.13
2022-08-05T18:34:58.422Z,102073.06
2022-08-05T18:37:34.184Z,102073.16
2022-08-05T18:41:50.491Z,102082.16
2022-08-05T18:42:58.439Z,102084.63
2022-08-05T18:45:41.000Z,102092.69
2022-08-05T18:48:11.408Z,102086.47
2022-08-05T18:52:02.484Z,102090.75
2022-08-05T18:53:50.502Z,102102.25
2022-08-05T18:56:21.743Z,102098.69
2022-08-05T18:58:52.867Z,102109.19
2022-08-05T19:01:47.230Z,102122.75
2022-08-05T19:04:24.113Z,102115.88
2022-08-05T19:06:53.451Z,102125.25
2022-08-05T19:09:23.807Z,102122.16
2022-08-05T19:12:00.015Z,102120.09
2022-08-05T19:14:59.518Z,102133.88
2022-08-05T19:17:18.113Z,102137.97
2022-08-05T19:19:48.640Z,102139.88
2022-08-05T19:22:17.848Z,102138.59
2022-08-05T19:24:55.899Z,102150.44
2022-08-05T19:27:27.875Z,102154.50
2022-08-05T19:29:59.433Z,102156.53
2022-08-05T19:32:28.332Z,102149.84
2022-08-05T19:34:57.827Z,102159.69
2022-08-05T19:37:34.885Z,102164.09
2022-08-05T19:40:17.742Z,102164.22
2022-08-05T19:43:05.053Z,102175.03
2022-08-05T19:45:36.749Z,102176.59
2022-08-05T19:48:06.775Z,102184.94
2022-08-05T19:50:43.567Z,102183.81
2022-08-05T19:53:12.497Z,102187.66
2022-08-05T19:56:15.703Z,102196.44
2022-08-05T19:58:31.731Z,102198.69
2022-08-05T20:01:28.382Z,102207.69
2022-08-05T20:03:57.447Z,102214.22
2022-08-05T20:06:28.705Z,102214.41
2022-08-05T20:09:00.885Z,102217.66
2022-08-05T20:11:48.255Z,102222.59
2022-08-05T20:14:26.725Z,102217.19
2022-08-05T20:16:58.481Z,102229.88
2022-08-05T20:19:36.137Z,102233.03
2022-08-05T20:22:09.884Z,102229.78
2022-08-05T20:24:38.775Z,102241.66
2022-08-05T20:27:11.154Z,102244.16
2022-08-05T20:29:40.997Z,102243.47
2022-08-05T20:32:10.222Z,102249.78
2022-08-05T20:34:39.002Z,102252.91
2022-08-05T20:37:18.101Z,102254.72
2022-08-05T20:39:59.530Z,102258.66
2022-08-05T20:42:29.756Z,102258.53
2022-08-05T20:44:58.423Z,102259.53
2022-08-05T20:47:32.172Z,102259.63
2022-08-05T20:50:02.519Z,102260.97
2022-08-05T20:52:35.421Z,102264.88
2022-08-05T20:55:54.946Z,102265.47
2022-08-05T20:57:54.612Z,102267.53
2022-08-05T21:00:44.096Z,102268.81
2022-08-05T21:03:16.671Z,102279.66
2022-08-05T21:05:54.693Z,102281.78
2022-08-05T21:08:33.160Z,102285.38
2022-08-05T21:11:11.804Z,102287.13
2022-08-05T21:13:55.590Z,102287.84
2022-08-05T21:16:29.127Z,102296.81
2022-08-05T21:19:00.896Z,102297.34
2022-08-05T21:21:39.830Z,102300.81
2022-08-05T21:24:20.055Z,102303.44
2022-08-05T21:26:53.444Z,102309.22
2022-08-05T21:29:32.356Z,102298.06
2022-08-05T21:32:03.477Z,102305.88
2022-08-05T21:34:35.631Z,102302.13
2022-08-05T21:37:04.801Z,102306.78
2022-08-05T21:39:34.841Z,102312.06
2022-08-05T21:42:19.742Z,102312.47
2022-08-05T21:45:01.269Z,102315.44
2022-08-05T21:47:55.957Z,102311.16
2022-08-05T21:50:20.237Z,102318.06
2022-08-05T21:52:51.135Z,102318.97
2022-08-05T21:56:01.022Z,102316.94
2022-08-05T21:58:11.661Z,102322.84
2022-08-05T22:00:42.102Z,102322.84
2022-08-05T22:03:53.226Z,102316.44
2022-08-05T22:06:09.910Z,102314.94
2022-08-05T22:08:42.789Z,102321.84
2022-08-05T22:11:15.419Z,102322.81
2022-08-05T22:14:06.283Z,102321.00
2022-08-05T22:16:51.511Z,102321.88
2022-08-05T22:19:57.430Z,102315.69
2022-08-05T22:22:10.312Z,102323.66
2022-08-05T22:24:56.399Z,102325.75
2022-08-05T22:28:09.914Z,102327.56
2022-08-05T22:30:34.938Z,102332.03
2022-08-05T22:33:15.514Z,102330.00
2022-08-05T22:35:48.760Z,102335.56
2022-08-05T22:38:18.869Z,102340.66
2022-08-05T22:40:54.771Z,102345.47
2022-08-05T22:43:37.411Z,102340.72
2022-08-05T22:46:13.640Z,102342.25
2022-08-05T22:48:53.572Z,102336.41
2022-08-05T22:51:30.039Z,102339.88
2022-08-05T22:54:11.162Z,102344.13
2022-08-05T22:56:40.594Z,102352.53
2022-08-05T22:59:44.293Z,102354.50
2022-08-05T23:02:05.871Z,102358.91
2022-08-05T23:04:39.083Z,102354.13
2022-08-05T23:07:08.188Z,102361.38
2022-08-05T23:09:57.977Z,102364.56
2022-08-05T23:12:25.892Z,102360.94
2022-08-05T23:14:57.519Z,102365.13
2022-08-05T23:17:32.796Z,102370.81
2022-08-05T23:20:10.546Z,102374.00
2022-08-05T23:22:48.496Z,102377.19
2022-08-05T23:25:51.003Z,102376.19
2022-08-05T23:28:07.891Z,102377.31
2022-08-05T23:30:40.280Z,102372.94
2022-08-05T23:33:16.055Z,102377.31
2022-08-05T23:35:56.223Z,102385.72
2022-08-05T23:38:26.132Z,102385.06
2022-08-05T23:40:55.656Z,102385.00
2022-08-05T23:44:05.820Z,102390.28
2022-08-05T23:46:20.146Z,102389.31
2022-08-05T23:49:01.171Z,102396.16
2022-08-05T23:51:52.504Z,102392.06
2022-08-05T23:54:25.607Z,102407.91
2022-08-05T23:57:03.359Z,102404.84
2022-08-05T23:59:37.561Z,102406.19
